sensor_id;sensor_type;location;lat;lon;timestamp;temperature;humidity
678;DHT22;321;48.814;9.132;2023-04-15T00:00:50;6.60;99.90
678;DHT22;321;48.814;9.132;2023-04-15T00:03:16;6.60;99.90
678;DHT22;321;48.814;9.132;2023-04-15T00:05:43;6.60;99.90
678;DHT22;321;48.814;9.132;2023-04-15T00:08:08;6.60;99.90
678;DHT22;321;48.814;9.132;2023-04-15T00:10:34;6.50;99.90
678;DHT22;321;48.814;9.132;2023-04-15T00:13:00;6.50;99.90
678;DHT22;321;48.814;9.132;2023-04-15T00:15:26;6.60;99.90
678;DHT22;321;48.814;9.132;2023-04-15T00:17:52;5.90;99.90
678;DHT22;321;48.814;9.132;2023-04-15T00:30:03;6.40;99.90
678;DHT22;321;48.814;9.132;2023-04-15T00:32:29;6.30;99.90
678;DHT22;321;48.814;9.132;2023-04-15T00:59:17;5.90;99.90
678;DHT22;321;48.814;9.132;2023-04-15T01:11:29;5.50;99.90
678;DHT22;321;48.814;9.132;2023-04-15T01:13:55;5.60;99.90
678;DHT22;321;48.814;9.132;2023-04-15T01:16:22;5.70;99.90
678;DHT22;321;48.814;9.132;2023-04-15T01:18:48;5.70;99.90
678;DHT22;321;48.814;9.132;2023-04-15T01:21:14;5.80;99.90
678;DHT22;321;48.814;9.132;2023-04-15T01:23:39;5.70;99.90
678;DHT22;321;48.814;9.132;2023-04-15T01:26:06;5.80;99.90
678;DHT22;321;48.814;9.132;2023-04-15T01:28:33;5.80;99.90
678;DHT22;321;48.814;9.132;2023-04-15T01:31:06;5.90;99.90
678;DHT22;321;48.814;9.132;2023-04-15T01:33:32;5.90;99.90
678;DHT22;321;48.814;9.132;2023-04-15T01:35:57;5.90;99.90
678;DHT22;321;48.814;9.132;2023-04-15T01:38:24;5.80;99.90
678;DHT22;321;48.814;9.132;2023-04-15T01:40:50;5.80;99.90
678;DHT22;321;48.814;9.132;2023-04-15T01:43:15;5.70;99.90
678;DHT22;321;48.814;9.132;2023-04-15T01:45:41;5.60;99.90
678;DHT22;321;48.814;9.132;2023-04-15T01:48:07;5.60;99.90
678;DHT22;321;48.814;9.132;2023-04-15T01:50:34;5.60;99.90
678;DHT22;321;48.814;9.132;2023-04-15T01:53:01;5.50;99.90
678;DHT22;321;48.814;9.132;2023-04-15T01:55:26;5.60;99.90
678;DHT22;321;48.814;9.132;2023-04-15T01:57:52;5.50;99.90
678;DHT22;321;48.814;9.132;2023-04-15T02:00:17;5.50;99.90
678;DHT22;321;48.814;9.132;2023-04-15T02:02:43;5.40;99.90
678;DHT22;321;48.814;9.132;2023-04-15T02:05:09;5.40;99.90
678;DHT22;321;48.814;9.132;2023-04-15T02:07:35;5.40;99.90
678;DHT22;321;48.814;9.132;2023-04-15T02:10:01;5.50;99.90
678;DHT22;321;48.814;9.132;2023-04-15T02:12:28;5.50;99.90
678;DHT22;321;48.814;9.132;2023-04-15T02:14:53;5.50;99.90
678;DHT22;321;48.814;9.132;2023-04-15T02:17:20;5.40;99.90
678;DHT22;321;48.814;9.132;2023-04-15T02:19:45;5.30;99.90
678;DHT22;321;48.814;9.132;2023-04-15T02:22:12;5.30;99.90
678;DHT22;321;48.814;9.132;2023-04-15T02:24:43;5.20;99.90
678;DHT22;321;48.814;9.132;2023-04-15T02:27:08;5.30;99.90
678;DHT22;321;48.814;9.132;2023-04-15T02:29:34;5.30;99.90
678;DHT22;321;48.814;9.132;2023-04-15T02:32:00;5.30;99.90
678;DHT22;321;48.814;9.132;2023-04-15T02:34:25;5.30;99.90
678;DHT22;321;48.814;9.132;2023-04-15T02:36:51;5.30;99.90
678;DHT22;321;48.814;9.132;2023-04-15T02:39:21;5.30;99.90
678;DHT22;321;48.814;9.132;2023-04-15T02:41:47;5.20;99.90
678;DHT22;321;48.814;9.132;2023-04-15T02:44:16;5.10;99.90
678;DHT22;321;48.814;9.132;2023-04-15T02:46:44;5.00;99.90
678;DHT22;321;48.814;9.132;2023-04-15T02:49:13;5.20;99.90
678;DHT22;321;48.814;9.132;2023-04-15T02:51:38;5.10;99.90
678;DHT22;321;48.814;9.132;2023-04-15T02:54:04;5.10;99.90
678;DHT22;321;48.814;9.132;2023-04-15T02:56:29;5.20;99.90
678;DHT22;321;48.814;9.132;2023-04-15T02:58:55;5.20;99.90
678;DHT22;321;48.814;9.132;2023-04-15T03:01:21;5.30;99.90
678;DHT22;321;48.814;9.132;2023-04-15T03:03:47;5.30;99.90
678;DHT22;321;48.814;9.132;2023-04-15T03:06:12;5.20;99.90
678;DHT22;321;48.814;9.132;2023-04-15T03:08:38;5.10;99.90
678;DHT22;321;48.814;9.132;2023-04-15T03:11:04;5.20;99.90
678;DHT22;321;48.814;9.132;2023-04-15T03:13:29;5.10;99.90
678;DHT22;321;48.814;9.132;2023-04-15T03:15:55;5.20;99.90
678;DHT22;321;48.814;9.132;2023-04-15T03:18:21;5.20;99.90
678;DHT22;321;48.814;9.132;2023-04-15T03:20:46;5.20;99.90
678;DHT22;321;48.814;9.132;2023-04-15T03:23:12;5.20;99.90
678;DHT22;321;48.814;9.132;2023-04-15T03:25:37;5.20;99.90
678;DHT22;321;48.814;9.132;2023-04-15T03:28:03;5.20;99.90
678;DHT22;321;48.814;9.132;2023-04-15T03:30:28;5.20;99.90
678;DHT22;321;48.814;9.132;2023-04-15T03:32:54;5.20;99.90
678;DHT22;321;48.814;9.132;2023-04-15T03:35:20;5.10;99.90
678;DHT22;321;48.814;9.132;2023-04-15T03:37:45;5.10;99.90
678;DHT22;321;48.814;9.132;2023-04-15T03:40:13;5.10;99.90
678;DHT22;321;48.814;9.132;2023-04-15T03:42:38;5.10;99.90
678;DHT22;321;48.814;9.132;2023-04-15T03:45:05;5.10;99.90
678;DHT22;321;48.814;9.132;2023-04-15T03:47:32;5.10;99.90
678;DHT22;321;48.814;9.132;2023-04-15T03:49:57;5.00;99.90
678;DHT22;321;48.814;9.132;2023-04-15T03:52:23;4.80;99.90
678;DHT22;321;48.814;9.132;2023-04-15T03:54:48;4.90;99.90
678;DHT22;321;48.814;9.132;2023-04-15T03:57:14;5.00;99.90
678;DHT22;321;48.814;9.132;2023-04-15T03:59:39;5.00;99.90
678;DHT22;321;48.814;9.132;2023-04-15T04:02:05;5.00;99.90
678;DHT22;321;48.814;9.132;2023-04-15T04:04:31;5.00;99.90
678;DHT22;321;48.814;9.132;2023-04-15T04:06:56;5.00;99.90
678;DHT22;321;48.814;9.132;2023-04-15T04:09:22;4.90;99.90
678;DHT22;321;48.814;9.132;2023-04-15T04:11:47;4.90;99.90
678;DHT22;321;48.814;9.132;2023-04-15T04:14:13;5.00;99.90
678;DHT22;321;48.814;9.132;2023-04-15T04:16:38;5.00;99.90
678;DHT22;321;48.814;9.132;2023-04-15T04:19:04;4.90;99.90
678;DHT22;321;48.814;9.132;2023-04-15T04:21:29;4.90;99.90
678;DHT22;321;48.814;9.132;2023-04-15T04:23:55;4.90;99.90
678;DHT22;321;48.814;9.132;2023-04-15T04:26:21;4.80;99.90
678;DHT22;321;48.814;9.132;2023-04-15T04:28:47;4.90;99.90
678;DHT22;321;48.814;9.132;2023-04-15T04:31:12;4.90;99.90
678;DHT22;321;48.814;9.132;2023-04-15T04:33:38;4.80;99.90
678;DHT22;321;48.814;9.132;2023-04-15T04:36:04;4.80;99.90
678;DHT22;321;48.814;9.132;2023-04-15T04:38:29;4.80;99.90
678;DHT22;321;48.814;9.132;2023-04-15T04:40:55;4.90;99.90
678;DHT22;321;48.814;9.132;2023-04-15T04:43:21;4.90;99.90
678;DHT22;321;48.814;9.132;2023-04-15T04:45:46;4.90;99.90
678;DHT22;321;48.814;9.132;2023-04-15T04:48:12;4.90;99.90
678;DHT22;321;48.814;9.132;2023-04-15T04:50:37;4.80;99.90
678;DHT22;321;48.814;9.132;2023-04-15T04:53:03;4.90;99.90
678;DHT22;321;48.814;9.132;2023-04-15T04:55:29;4.90;99.90
678;DHT22;321;48.814;9.132;2023-04-15T04:57:56;4.90;99.90
678;DHT22;321;48.814;9.132;2023-04-15T05:00:21;4.90;99.90
678;DHT22;321;48.814;9.132;2023-04-15T05:02:47;4.90;99.90
678;DHT22;321;48.814;9.132;2023-04-15T05:05:12;5.00;99.90
678;DHT22;321;48.814;9.132;2023-04-15T05:07:38;5.00;99.90
678;DHT22;321;48.814;9.132;2023-04-15T05:10:04;4.90;99.90
678;DHT22;321;48.814;9.132;2023-04-15T05:12:30;5.00;99.90
678;DHT22;321;48.814;9.132;2023-04-15T05:14:56;4.90;99.90
678;DHT22;321;48.814;9.132;2023-04-15T05:17:22;4.90;99.90
678;DHT22;321;48.814;9.132;2023-04-15T05:19:48;4.90;99.90
678;DHT22;321;48.814;9.132;2023-04-15T05:22:13;4.90;99.90
678;DHT22;321;48.814;9.132;2023-04-15T05:24:39;4.90;99.90
678;DHT22;321;48.814;9.132;2023-04-15T05:27:04;4.90;99.90
678;DHT22;321;48.814;9.132;2023-04-15T05:29:30;5.00;99.90
678;DHT22;321;48.814;9.132;2023-04-15T05:31:56;5.10;99.90
678;DHT22;321;48.814;9.132;2023-04-15T05:34:21;5.10;99.90
678;DHT22;321;48.814;9.132;2023-04-15T05:36:47;5.20;99.90
678;DHT22;321;48.814;9.132;2023-04-15T05:39:13;5.30;99.90
678;DHT22;321;48.814;9.132;2023-04-15T05:41:38;5.30;99.90
678;DHT22;321;48.814;9.132;2023-04-15T05:44:04;5.50;99.90
678;DHT22;321;48.814;9.132;2023-04-15T05:46:29;5.60;99.90
678;DHT22;321;48.814;9.132;2023-04-15T05:48:55;5.70;99.90
678;DHT22;321;48.814;9.132;2023-04-15T05:51:20;5.80;99.90
678;DHT22;321;48.814;9.132;2023-04-15T05:53:46;5.90;99.90
678;DHT22;321;48.814;9.132;2023-04-15T05:56:12;6.00;99.90
678;DHT22;321;48.814;9.132;2023-04-15T05:58:37;6.20;99.90
678;DHT22;321;48.814;9.132;2023-04-15T06:01:03;6.40;99.90
678;DHT22;321;48.814;9.132;2023-04-15T06:03:28;6.50;99.90
678;DHT22;321;48.814;9.132;2023-04-15T06:05:54;6.70;99.90
678;DHT22;321;48.814;9.132;2023-04-15T06:08:20;6.90;99.90
678;DHT22;321;48.814;9.132;2023-04-15T06:10:46;7.00;99.90
678;DHT22;321;48.814;9.132;2023-04-15T06:13:12;7.20;99.90
678;DHT22;321;48.814;9.132;2023-04-15T06:15:37;7.40;99.90
678;DHT22;321;48.814;9.132;2023-04-15T06:18:03;7.50;99.90
678;DHT22;321;48.814;9.132;2023-04-15T06:20:29;7.80;99.90
678;DHT22;321;48.814;9.132;2023-04-15T06:22:55;7.90;99.90
678;DHT22;321;48.814;9.132;2023-04-15T06:25:21;8.10;99.90
678;DHT22;321;48.814;9.132;2023-04-15T06:27:47;8.40;99.90
678;DHT22;321;48.814;9.132;2023-04-15T06:30:13;8.60;99.90
678;DHT22;321;48.814;9.132;2023-04-15T06:32:38;8.80;99.90
678;DHT22;321;48.814;9.132;2023-04-15T06:35:04;9.10;99.90
678;DHT22;321;48.814;9.132;2023-04-15T06:37:30;9.30;99.90
678;DHT22;321;48.814;9.132;2023-04-15T06:39:57;9.40;99.90
678;DHT22;321;48.814;9.132;2023-04-15T06:42:22;9.70;99.90
678;DHT22;321;48.814;9.132;2023-04-15T06:44:48;9.90;99.90
678;DHT22;321;48.814;9.132;2023-04-15T06:47:14;10.00;99.90
678;DHT22;321;48.814;9.132;2023-04-15T06:49:39;9.90;99.90
678;DHT22;321;48.814;9.132;2023-04-15T06:52:05;10.20;99.90
678;DHT22;321;48.814;9.132;2023-04-15T06:54:31;10.40;99.90
678;DHT22;321;48.814;9.132;2023-04-15T06:56:56;10.60;99.90
678;DHT22;321;48.814;9.132;2023-04-15T06:59:22;11.00;99.90
678;DHT22;321;48.814;9.132;2023-04-15T07:01:48;11.20;99.90
678;DHT22;321;48.814;9.132;2023-04-15T07:04:14;11.20;99.90
678;DHT22;321;48.814;9.132;2023-04-15T07:06:39;11.30;99.90
678;DHT22;321;48.814;9.132;2023-04-15T07:09:06;11.60;99.90
678;DHT22;321;48.814;9.132;2023-04-15T07:11:31;11.90;99.90
678;DHT22;321;48.814;9.132;2023-04-15T07:13:57;12.70;99.50
678;DHT22;321;48.814;9.132;2023-04-15T07:16:23;14.70;97.60
678;DHT22;321;48.814;9.132;2023-04-15T07:18:48;16.40;94.70
678;DHT22;321;48.814;9.132;2023-04-15T07:21:14;18.40;91.00
678;DHT22;321;48.814;9.132;2023-04-15T07:23:41;19.10;86.00
678;DHT22;321;48.814;9.132;2023-04-15T07:26:07;20.10;83.90
678;DHT22;321;48.814;9.132;2023-04-15T07:28:33;19.90;80.70
678;DHT22;321;48.814;9.132;2023-04-15T07:30:59;20.20;77.80
678;DHT22;321;48.814;9.132;2023-04-15T07:33:25;20.70;77.90
678;DHT22;321;48.814;9.132;2023-04-15T07:35:50;21.10;75.60
678;DHT22;321;48.814;9.132;2023-04-15T07:38:16;20.60;71.20
678;DHT22;321;48.814;9.132;2023-04-15T07:40:42;20.70;73.70
678;DHT22;321;48.814;9.132;2023-04-15T07:43:07;20.50;69.90
678;DHT22;321;48.814;9.132;2023-04-15T07:45:33;20.50;70.50
678;DHT22;321;48.814;9.132;2023-04-15T07:48:00;20.50;70.50
678;DHT22;321;48.814;9.132;2023-04-15T07:50:26;20.40;69.20
678;DHT22;321;48.814;9.132;2023-04-15T07:52:51;20.00;67.20
678;DHT22;321;48.814;9.132;2023-04-15T07:55:17;19.60;67.00
678;DHT22;321;48.814;9.132;2023-04-15T07:57:45;19.30;68.80
678;DHT22;321;48.814;9.132;2023-04-15T08:00:12;19.20;68.80
678;DHT22;321;48.814;9.132;2023-04-15T08:02:40;19.20;69.80
678;DHT22;321;48.814;9.132;2023-04-15T08:05:07;19.10;68.80
678;DHT22;321;48.814;9.132;2023-04-15T08:07:33;19.00;69.70
678;DHT22;321;48.814;9.132;2023-04-15T08:09:59;18.70;69.10
678;DHT22;321;48.814;9.132;2023-04-15T08:12:24;18.90;71.50
678;DHT22;321;48.814;9.132;2023-04-15T08:14:50;19.20;75.40
678;DHT22;321;48.814;9.132;2023-04-15T08:17:16;19.50;72.00
678;DHT22;321;48.814;9.132;2023-04-15T08:19:42;20.40;67.40
678;DHT22;321;48.814;9.132;2023-04-15T08:22:07;21.20;64.70
678;DHT22;321;48.814;9.132;2023-04-15T08:24:33;22.30;61.40
678;DHT22;321;48.814;9.132;2023-04-15T08:26:59;23.20;60.90
678;DHT22;321;48.814;9.132;2023-04-15T08:29:25;24.10;61.80
678;DHT22;321;48.814;9.132;2023-04-15T08:31:51;24.60;57.10
678;DHT22;321;48.814;9.132;2023-04-15T08:34:18;24.60;56.30
678;DHT22;321;48.814;9.132;2023-04-15T08:36:43;24.40;55.20
678;DHT22;321;48.814;9.132;2023-04-15T08:39:09;24.10;54.90
678;DHT22;321;48.814;9.132;2023-04-15T08:41:44;23.90;55.00
678;DHT22;321;48.814;9.132;2023-04-15T08:44:11;23.70;55.30
678;DHT22;321;48.814;9.132;2023-04-15T08:46:38;23.40;57.70
678;DHT22;321;48.814;9.132;2023-04-15T08:49:04;23.70;56.70
678;DHT22;321;48.814;9.132;2023-04-15T08:51:30;25.10;62.40
678;DHT22;321;48.814;9.132;2023-04-15T08:53:56;25.20;59.50
678;DHT22;321;48.814;9.132;2023-04-15T08:56:24;25.30;56.90
678;DHT22;321;48.814;9.132;2023-04-15T08:58:51;25.30;53.70
678;DHT22;321;48.814;9.132;2023-04-15T09:01:17;25.30;53.70
678;DHT22;321;48.814;9.132;2023-04-15T09:03:43;25.00;54.30
678;DHT22;321;48.814;9.132;2023-04-15T09:06:09;25.30;53.90
678;DHT22;321;48.814;9.132;2023-04-15T09:08:35;25.30;53.10
678;DHT22;321;48.814;9.132;2023-04-15T09:11:01;25.10;52.60
678;DHT22;321;48.814;9.132;2023-04-15T09:13:27;25.50;56.50
678;DHT22;321;48.814;9.132;2023-04-15T09:15:54;25.50;51.30
678;DHT22;321;48.814;9.132;2023-04-15T09:18:36;26.00;52.00
678;DHT22;321;48.814;9.132;2023-04-15T09:21:12;26.60;50.80
678;DHT22;321;48.814;9.132;2023-04-15T09:23:40;25.90;48.10
678;DHT22;321;48.814;9.132;2023-04-15T09:26:06;25.90;52.00
678;DHT22;321;48.814;9.132;2023-04-15T09:28:32;26.70;54.40
678;DHT22;321;48.814;9.132;2023-04-15T09:31:00;27.10;49.90
678;DHT22;321;48.814;9.132;2023-04-15T09:33:28;27.40;48.60
678;DHT22;321;48.814;9.132;2023-04-15T09:36:04;26.80;55.80
678;DHT22;321;48.814;9.132;2023-04-15T09:38:31;26.50;48.00
678;DHT22;321;48.814;9.132;2023-04-15T09:40:57;25.50;48.00
678;DHT22;321;48.814;9.132;2023-04-15T09:43:37;25.40;52.90
678;DHT22;321;48.814;9.132;2023-04-15T09:46:03;24.70;53.50
678;DHT22;321;48.814;9.132;2023-04-15T09:48:29;24.30;60.70
678;DHT22;321;48.814;9.132;2023-04-15T09:50:59;24.70;51.60
678;DHT22;321;48.814;9.132;2023-04-15T09:53:25;22.40;50.90
678;DHT22;321;48.814;9.132;2023-04-15T09:55:56;21.10;54.30
678;DHT22;321;48.814;9.132;2023-04-15T09:58:27;20.40;57.30
678;DHT22;321;48.814;9.132;2023-04-15T10:00:54;20.20;57.40
678;DHT22;321;48.814;9.132;2023-04-15T10:03:28;19.70;57.90
678;DHT22;321;48.814;9.132;2023-04-15T10:05:58;20.60;57.30
678;DHT22;321;48.814;9.132;2023-04-15T10:08:29;19.80;57.70
678;DHT22;321;48.814;9.132;2023-04-15T10:10:56;19.90;57.30
678;DHT22;321;48.814;9.132;2023-04-15T10:13:25;20.00;62.70
678;DHT22;321;48.814;9.132;2023-04-15T10:16:06;19.50;58.00
678;DHT22;321;48.814;9.132;2023-04-15T10:18:35;19.30;58.20
678;DHT22;321;48.814;9.132;2023-04-15T10:21:03;19.30;58.70
678;DHT22;321;48.814;9.132;2023-04-15T10:23:30;18.60;67.00
678;DHT22;321;48.814;9.132;2023-04-15T10:25:57;18.60;62.30
678;DHT22;321;48.814;9.132;2023-04-15T10:28:24;18.50;64.20
678;DHT22;321;48.814;9.132;2023-04-15T10:30:51;18.80;66.70
678;DHT22;321;48.814;9.132;2023-04-15T10:33:20;19.50;66.80
678;DHT22;321;48.814;9.132;2023-04-15T10:35:47;20.10;60.70
678;DHT22;321;48.814;9.132;2023-04-15T10:38:33;20.00;60.20
678;DHT22;321;48.814;9.132;2023-04-15T10:41:21;20.20;59.90
678;DHT22;321;48.814;9.132;2023-04-15T10:44:07;20.60;61.60
678;DHT22;321;48.814;9.132;2023-04-15T10:46:38;21.00;58.00
678;DHT22;321;48.814;9.132;2023-04-15T10:49:14;21.50;58.10
678;DHT22;321;48.814;9.132;2023-04-15T10:51:41;21.50;57.60
678;DHT22;321;48.814;9.132;2023-04-15T10:54:30;21.40;57.70
678;DHT22;321;48.814;9.132;2023-04-15T10:59:38;19.70;60.20
678;DHT22;321;48.814;9.132;2023-04-15T11:02:05;19.30;59.20
678;DHT22;321;48.814;9.132;2023-04-15T11:08:14;18.40;62.40
678;DHT22;321;48.814;9.132;2023-04-15T11:13:19;18.60;66.80
678;DHT22;321;48.814;9.132;2023-04-15T11:15:47;19.30;60.90
678;DHT22;321;48.814;9.132;2023-04-15T11:18:52;19.30;58.40
678;DHT22;321;48.814;9.132;2023-04-15T11:21:06;20.00;60.80
678;DHT22;321;48.814;9.132;2023-04-15T11:25:59;20.60;56.90
678;DHT22;321;48.814;9.132;2023-04-15T11:28:26;20.80;58.10
678;DHT22;321;48.814;9.132;2023-04-15T11:30:52;21.00;57.90
678;DHT22;321;48.814;9.132;2023-04-15T11:33:20;21.00;63.50
678;DHT22;321;48.814;9.132;2023-04-15T11:35:46;20.90;58.50
678;DHT22;321;48.814;9.132;2023-04-15T11:38:13;20.50;57.60
678;DHT22;321;48.814;9.132;2023-04-15T11:40:40;19.90;57.30
678;DHT22;321;48.814;9.132;2023-04-15T11:45:57;18.60;62.30
678;DHT22;321;48.814;9.132;2023-04-15T11:48:26;18.70;67.30
678;DHT22;321;48.814;9.132;2023-04-15T11:50:56;18.00;64.70
678;DHT22;321;48.814;9.132;2023-04-15T11:53:23;18.00;66.90
678;DHT22;321;48.814;9.132;2023-04-15T11:55:51;18.10;66.00
678;DHT22;321;48.814;9.132;2023-04-15T11:58:21;18.30;66.50
678;DHT22;321;48.814;9.132;2023-04-15T12:03:23;18.30;66.40
678;DHT22;321;48.814;9.132;2023-04-15T12:06:09;18.10;70.30
678;DHT22;321;48.814;9.132;2023-04-15T12:14:06;18.00;67.60
678;DHT22;321;48.814;9.132;2023-04-15T12:16:40;17.90;63.10
678;DHT22;321;48.814;9.132;2023-04-15T12:19:10;18.00;65.60
678;DHT22;321;48.814;9.132;2023-04-15T12:21:38;17.80;61.90
678;DHT22;321;48.814;9.132;2023-04-15T12:24:06;17.60;64.80
678;DHT22;321;48.814;9.132;2023-04-15T12:29:11;16.50;71.70
678;DHT22;321;48.814;9.132;2023-04-15T12:31:46;16.40;73.90
678;DHT22;321;48.814;9.132;2023-04-15T12:34:13;15.90;79.20
678;DHT22;321;48.814;9.132;2023-04-15T12:36:38;15.60;81.10
678;DHT22;321;48.814;9.132;2023-04-15T12:39:04;15.60;83.40
678;DHT22;321;48.814;9.132;2023-04-15T12:41:31;15.00;86.20
678;DHT22;321;48.814;9.132;2023-04-15T12:43:57;15.00;85.60
678;DHT22;321;48.814;9.132;2023-04-15T12:46:23;14.90;87.40
678;DHT22;321;48.814;9.132;2023-04-15T12:48:49;15.30;88.50
678;DHT22;321;48.814;9.132;2023-04-15T12:51:16;15.40;90.30
678;DHT22;321;48.814;9.132;2023-04-15T12:53:42;14.90;93.20
678;DHT22;321;48.814;9.132;2023-04-15T12:56:07;14.90;90.70
678;DHT22;321;48.814;9.132;2023-04-15T12:58:33;15.10;90.40
678;DHT22;321;48.814;9.132;2023-04-15T13:00:58;15.10;89.20
678;DHT22;321;48.814;9.132;2023-04-15T13:03:24;15.40;86.90
678;DHT22;321;48.814;9.132;2023-04-15T13:05:50;15.50;88.70
678;DHT22;321;48.814;9.132;2023-04-15T13:08:15;15.60;85.00
678;DHT22;321;48.814;9.132;2023-04-15T13:10:41;16.20;90.30
678;DHT22;321;48.814;9.132;2023-04-15T13:13:07;16.30;95.40
678;DHT22;321;48.814;9.132;2023-04-15T13:17:59;16.20;91.00
678;DHT22;321;48.814;9.132;2023-04-15T13:20:25;16.10;80.10
678;DHT22;321;48.814;9.132;2023-04-15T13:22:52;15.90;96.20
678;DHT22;321;48.814;9.132;2023-04-15T13:25:18;16.00;96.80
678;DHT22;321;48.814;9.132;2023-04-15T13:27:43;15.70;95.10
678;DHT22;321;48.814;9.132;2023-04-15T13:37:29;15.20;75.40
678;DHT22;321;48.814;9.132;2023-04-15T13:39:55;15.40;83.00
678;DHT22;321;48.814;9.132;2023-04-15T13:42:24;15.60;91.00
678;DHT22;321;48.814;9.132;2023-04-15T13:44:50;15.80;94.80
678;DHT22;321;48.814;9.132;2023-04-15T13:49:42;16.00;91.70
678;DHT22;321;48.814;9.132;2023-04-15T13:57:00;15.40;92.40
678;DHT22;321;48.814;9.132;2023-04-15T13:59:26;15.80;73.50
678;DHT22;321;48.814;9.132;2023-04-15T14:01:52;15.20;69.40
678;DHT22;321;48.814;9.132;2023-04-15T14:06:43;14.70;88.50
678;DHT22;321;48.814;9.132;2023-04-15T14:11:37;14.50;79.20
678;DHT22;321;48.814;9.132;2023-04-15T14:14:04;14.50;69.60
678;DHT22;321;48.814;9.132;2023-04-15T14:16:31;14.10;86.60
678;DHT22;321;48.814;9.132;2023-04-15T14:18:57;14.30;69.10
678;DHT22;321;48.814;9.132;2023-04-15T14:36:01;13.90;86.60
678;DHT22;321;48.814;9.132;2023-04-15T15:00:22;12.80;76.80
678;DHT22;321;48.814;9.132;2023-04-15T15:02:48;12.60;80.70
678;DHT22;321;48.814;9.132;2023-04-15T15:05:13;12.50;84.30
678;DHT22;321;48.814;9.132;2023-04-15T15:07:39;12.40;84.70
678;DHT22;321;48.814;9.132;2023-04-15T15:10:07;12.40;93.80
678;DHT22;321;48.814;9.132;2023-04-15T15:12:33;12.30;86.20
678;DHT22;321;48.814;9.132;2023-04-15T15:14:59;12.20;89.10
678;DHT22;321;48.814;9.132;2023-04-15T15:22:16;12.40;88.30
678;DHT22;321;48.814;9.132;2023-04-15T15:24:42;12.60;93.30
678;DHT22;321;48.814;9.132;2023-04-15T15:27:08;12.40;90.00
678;DHT22;321;48.814;9.132;2023-04-15T15:29:33;12.70;90.30
678;DHT22;321;48.814;9.132;2023-04-15T15:31:59;13.60;91.90
678;DHT22;321;48.814;9.132;2023-04-15T15:34:25;12.80;96.30
678;DHT22;321;48.814;9.132;2023-04-15T15:36:52;12.20;96.90
678;DHT22;321;48.814;9.132;2023-04-15T15:39:17;12.70;87.60
678;DHT22;321;48.814;9.132;2023-04-15T15:46:35;12.70;95.50
678;DHT22;321;48.814;9.132;2023-04-15T15:49:02;12.70;91.60
678;DHT22;321;48.814;9.132;2023-04-15T16:03:38;12.60;86.90
678;DHT22;321;48.814;9.132;2023-04-15T16:06:03;12.60;85.50
678;DHT22;321;48.814;9.132;2023-04-15T16:08:29;12.60;88.20
678;DHT22;321;48.814;9.132;2023-04-15T16:15:47;12.40;94.40
678;DHT22;321;48.814;9.132;2023-04-15T16:18:15;12.30;95.80
678;DHT22;321;48.814;9.132;2023-04-15T16:20:40;12.30;99.90
678;DHT22;321;48.814;9.132;2023-04-15T16:23:15;12.90;99.70
678;DHT22;321;48.814;9.132;2023-04-15T16:25:43;12.00;99.90
678;DHT22;321;48.814;9.132;2023-04-15T16:30:36;12.00;99.90
678;DHT22;321;48.814;9.132;2023-04-15T16:33:06;12.20;99.90
678;DHT22;321;48.814;9.132;2023-04-15T16:35:32;12.20;99.90
678;DHT22;321;48.814;9.132;2023-04-15T16:37:58;12.10;99.90
678;DHT22;321;48.814;9.132;2023-04-15T16:40:24;12.00;99.90
678;DHT22;321;48.814;9.132;2023-04-15T16:42:49;12.00;99.90
678;DHT22;321;48.814;9.132;2023-04-15T16:47:41;11.80;99.90
678;DHT22;321;48.814;9.132;2023-04-15T16:50:07;12.10;99.90
678;DHT22;321;48.814;9.132;2023-04-15T17:04:45;11.30;99.90
678;DHT22;321;48.814;9.132;2023-04-15T17:12:06;11.10;99.90
678;DHT22;321;48.814;9.132;2023-04-15T17:21:51;11.10;99.90
678;DHT22;321;48.814;9.132;2023-04-15T17:34:01;10.80;99.90
678;DHT22;321;48.814;9.132;2023-04-15T17:38:55;11.00;99.90
678;DHT22;321;48.814;9.132;2023-04-15T17:46:13;10.90;99.90
678;DHT22;321;48.814;9.132;2023-04-15T17:58:25;11.00;99.90
678;DHT22;321;48.814;9.132;2023-04-15T18:15:28;10.70;99.90
678;DHT22;321;48.814;9.132;2023-04-15T18:17:55;10.70;99.90
678;DHT22;321;48.814;9.132;2023-04-15T18:22:46;10.70;99.90
678;DHT22;321;48.814;9.132;2023-04-15T18:25:12;10.60;99.90
678;DHT22;321;48.814;9.132;2023-04-15T18:27:37;10.40;99.90
678;DHT22;321;48.814;9.132;2023-04-15T18:30:09;10.30;99.90
678;DHT22;321;48.814;9.132;2023-04-15T18:32:36;10.20;99.90
678;DHT22;321;48.814;9.132;2023-04-15T18:35:03;10.10;99.90
678;DHT22;321;48.814;9.132;2023-04-15T18:37:30;10.20;99.90
678;DHT22;321;48.814;9.132;2023-04-15T18:39:56;10.20;99.90
678;DHT22;321;48.814;9.132;2023-04-15T18:42:22;10.10;99.90
678;DHT22;321;48.814;9.132;2023-04-15T18:44:48;10.30;99.90
678;DHT22;321;48.814;9.132;2023-04-15T18:47:14;10.30;99.90
678;DHT22;321;48.814;9.132;2023-04-15T18:49:40;10.20;99.90
678;DHT22;321;48.814;9.132;2023-04-15T18:52:09;10.10;99.90
678;DHT22;321;48.814;9.132;2023-04-15T18:54:35;10.30;99.90
678;DHT22;321;48.814;9.132;2023-04-15T18:57:01;10.20;99.90
678;DHT22;321;48.814;9.132;2023-04-15T18:59:28;10.20;99.90
678;DHT22;321;48.814;9.132;2023-04-15T19:01:54;10.20;99.90
678;DHT22;321;48.814;9.132;2023-04-15T19:04:19;10.20;99.90
678;DHT22;321;48.814;9.132;2023-04-15T19:06:48;10.10;99.90
678;DHT22;321;48.814;9.132;2023-04-15T19:09:14;10.10;99.90
678;DHT22;321;48.814;9.132;2023-04-15T19:11:40;10.10;99.90
678;DHT22;321;48.814;9.132;2023-04-15T19:14:06;10.10;99.90
678;DHT22;321;48.814;9.132;2023-04-15T19:16:31;10.30;99.90
678;DHT22;321;48.814;9.132;2023-04-15T19:18:57;10.30;99.90
678;DHT22;321;48.814;9.132;2023-04-15T19:21:23;10.30;99.90
678;DHT22;321;48.814;9.132;2023-04-15T19:23:48;10.20;99.90
678;DHT22;321;48.814;9.132;2023-04-15T19:26:14;10.00;99.90
678;DHT22;321;48.814;9.132;2023-04-15T19:28:40;9.90;99.90
678;DHT22;321;48.814;9.132;2023-04-15T19:31:06;10.10;99.90
678;DHT22;321;48.814;9.132;2023-04-15T19:33:32;10.00;99.90
678;DHT22;321;48.814;9.132;2023-04-15T19:36:03;10.00;99.90
678;DHT22;321;48.814;9.132;2023-04-15T19:38:29;10.00;99.90
678;DHT22;321;48.814;9.132;2023-04-15T19:40:56;9.90;99.90
678;DHT22;321;48.814;9.132;2023-04-15T19:43:21;9.90;99.90
678;DHT22;321;48.814;9.132;2023-04-15T19:45:47;10.00;99.90
678;DHT22;321;48.814;9.132;2023-04-15T19:48:16;9.90;99.90
678;DHT22;321;48.814;9.132;2023-04-15T19:50:42;9.80;99.90
678;DHT22;321;48.814;9.132;2023-04-15T19:53:08;9.90;99.90
678;DHT22;321;48.814;9.132;2023-04-15T19:55:34;9.90;99.90
678;DHT22;321;48.814;9.132;2023-04-15T19:57:59;9.80;99.90
678;DHT22;321;48.814;9.132;2023-04-15T20:00:25;9.50;99.90
678;DHT22;321;48.814;9.132;2023-04-15T20:02:51;9.60;99.90
678;DHT22;321;48.814;9.132;2023-04-15T20:05:17;9.60;99.90
678;DHT22;321;48.814;9.132;2023-04-15T20:07:43;9.60;99.90
678;DHT22;321;48.814;9.132;2023-04-15T20:10:11;9.70;99.90
678;DHT22;321;48.814;9.132;2023-04-15T20:12:38;9.70;99.90
678;DHT22;321;48.814;9.132;2023-04-15T20:15:06;9.70;99.90
678;DHT22;321;48.814;9.132;2023-04-15T20:17:32;9.70;99.90
678;DHT22;321;48.814;9.132;2023-04-15T20:19:58;9.60;99.90
678;DHT22;321;48.814;9.132;2023-04-15T20:22:23;9.70;99.90
678;DHT22;321;48.814;9.132;2023-04-15T20:24:49;9.70;99.90